Time;durP1;ratioP1;P1;durP2;ratioP2;P2;SDS_P1;SDS_P2;PMS_P1;PMS_P2;Temp;Humidity;BMP_temperature;BMP_pressure;BME280_temperature;BME280_humidity;BME280_pressure;Samples;Min_cycle;Max_cycle;Signal;HPM_P1;HPM_P2
2024/01/23 00:01:33;;;;;;;2.40;1.10;;;;;;;5.34;100.00;152734.38;5034506;28;20505;-93
2024/01/23 00:04:00;;;;;;;1.27;0.80;;;;;;;5.38;100.00;152743.34;5034963;28;20450;-94
2024/01/23 00:06:26;;;;;;;2.27;1.30;;;;;;;5.35;100.00;152735.63;5033797;28;20443;-94
2024/01/23 00:08:54;;;;;;;3.00;1.40;;;;;;;5.36;100.00;152738.22;5033809;28;20443;-93
2024/01/23 00:11:21;;;;;;;1.80;0.83;;;;;;;5.34;100.00;152734.38;5034936;28;20530;-94
2024/01/23 00:13:48;;;;;;;1.40;1.20;;;;;;;5.36;100.00;152738.22;5034504;28;20482;-94
2024/01/23 00:16:15;;;;;;;2.80;0.90;;;;;;;5.40;100.00;152748.56;5034059;28;20454;-94
2024/01/23 00:18:42;;;;;;;3.23;1.00;;;;;;;5.40;100.00;152748.56;5034381;28;20505;-94
2024/01/23 00:21:08;;;;;;;1.53;0.80;;;;;;;5.40;100.00;152749.81;5035452;28;20446;-93
2024/01/23 00:23:35;;;;;;;2.10;1.00;;;;;;;5.40;100.00;152748.56;5034216;28;20462;-94
2024/01/23 00:26:02;;;;;;;1.70;0.90;;;;;;;5.40;100.00;152749.81;5034223;28;20492;-94
2024/01/23 00:28:28;;;;;;;1.43;0.93;;;;;;;5.40;100.00;152748.56;5034073;28;20495;-94
2024/01/23 00:30:54;;;;;;;1.60;0.87;;;;;;;5.41;100.00;152751.09;5034391;28;20443;-94
2024/01/23 00:33:21;;;;;;;2.77;1.17;;;;;;;5.40;100.00;152748.56;5033998;28;20860;-94
2024/01/23 00:35:47;;;;;;;4.47;1.40;;;;;;;5.41;100.00;152752.41;5034382;28;20685;-93
2024/01/23 00:38:14;;;;;;;1.60;1.17;;;;;;;5.41;100.00;152751.09;5034115;28;20820;-94
2024/01/23 00:40:40;;;;;;;1.13;0.70;;;;;;;5.38;100.00;152743.34;5034811;28;20480;-94
2024/01/23 00:43:08;;;;;;;1.43;0.70;;;;;;;5.36;100.00;152738.22;5034489;28;20420;-94
2024/01/23 00:45:35;;;;;;;2.60;1.23;;;;;;;5.35;100.00;152735.63;5034605;28;20454;-94
2024/01/23 00:48:02;;;;;;;3.67;1.20;;;;;;;5.34;100.00;152733.06;5034508;28;20989;-94
2024/01/23 00:50:28;;;;;;;2.03;1.23;;;;;;;5.32;100.00;152729.16;5034525;28;20512;-94
2024/01/23 00:52:55;;;;;;;1.77;0.97;;;;;;;5.31;100.00;152725.31;5033658;28;21038;-93
2024/01/23 00:55:21;;;;;;;4.20;1.03;;;;;;;5.30;100.00;152722.72;5033549;28;20441;-94
2024/01/23 00:57:48;;;;;;;2.30;0.90;;;;;;;5.29;100.00;152720.19;5034213;28;20485;-94
2024/01/23 01:00:16;;;;;;;1.93;0.90;;;;;;;5.29;100.00;152720.19;5033868;28;20457;-93
2024/01/23 01:02:43;;;;;;;3.40;1.03;;;;;;;5.29;100.00;152720.19;5033944;28;20497;-93
2024/01/23 01:05:10;;;;;;;2.80;1.27;;;;;;;5.29;100.00;152720.19;5050474;28;20443;-94
2024/01/23 01:07:36;;;;;;;2.83;0.97;;;;;;;5.27;100.00;152715.03;5034279;28;20431;-93
2024/01/23 01:10:04;;;;;;;2.10;1.07;;;;;;;5.28;100.00;152717.59;5033226;28;20479;-93
2024/01/23 01:12:31;;;;;;;3.90;1.37;;;;;;;5.28;100.00;152718.88;5050321;28;20477;-93
2024/01/23 01:14:57;;;;;;;3.50;1.37;;;;;;;5.28;100.00;152718.88;5033100;28;20443;-93
2024/01/23 01:17:26;;;;;;;2.73;1.50;;;;;;;5.31;100.00;152725.31;5033243;28;20805;-93
2024/01/23 01:19:53;;;;;;;1.47;0.90;;;;;;;5.32;100.00;152727.91;5033627;28;20461;-92
2024/01/23 01:22:20;;;;;;;2.47;0.90;;;;;;;5.32;100.00;152727.91;5032936;28;20478;-92
2024/01/23 01:24:47;;;;;;;7.33;1.30;;;;;;;5.32;100.00;152727.91;5048808;28;20443;-91
2024/01/23 01:27:13;;;;;;;2.40;1.30;;;;;;;5.35;100.00;152735.63;5038790;28;20484;-92
2024/01/23 01:29:40;;;;;;;3.10;1.33;;;;;;;5.34;100.00;152734.38;5032528;28;20956;-92
2024/01/23 01:32:07;;;;;;;2.40;1.20;;;;;;;5.34;100.00;152734.38;5032680;28;20953;-92
2024/01/23 01:34:35;;;;;;;2.00;1.20;;;;;;;5.34;100.00;152733.06;5033217;28;20431;-91
2024/01/23 01:37:02;;;;;;;3.10;1.40;;;;;;;5.36;100.00;152738.22;5034421;28;20443;-91
2024/01/23 01:39:28;;;;;;;3.40;1.40;;;;;;;5.35;100.00;152735.63;5033873;28;20489;-92
2024/01/23 01:41:55;;;;;;;2.23;1.33;;;;;;;5.33;100.00;152731.78;5033952;28;20474;-92
2024/01/23 01:44:22;;;;;;;2.47;0.90;;;;;;;5.32;100.00;152727.91;5034284;28;20817;-93
2024/01/23 01:46:49;;;;;;;3.27;1.60;;;;;;;5.29;100.00;152721.47;5034266;28;20461;-93
2024/01/23 01:49:16;;;;;;;2.07;1.20;;;;;;;5.28;100.00;152717.59;5034520;28;20446;-93
2024/01/23 01:51:44;;;;;;;2.20;0.93;;;;;;;5.26;100.00;152713.75;5034260;28;20540;-93
2024/01/23 01:54:11;;;;;;;4.13;1.20;;;;;;;5.28;100.00;152717.59;5034925;28;20728;-93
2024/01/23 01:56:39;;;;;;;8.10;1.40;;;;;;;5.27;100.00;152715.03;5036228;28;20443;-93
2024/01/23 01:59:05;;;;;;;1.70;0.87;;;;;;;5.27;100.00;152715.03;5041703;28;20449;-92
2024/01/23 02:01:32;;;;;;;4.30;1.30;;;;;;;5.27;100.00;152716.28;5040622;28;20438;-92
2024/01/23 02:03:58;;;;;;;2.17;1.30;;;;;;;5.24;100.00;152707.28;5036289;28;20443;-93
2024/01/23 02:06:25;;;;;;;3.03;1.37;;;;;;;5.25;100.00;152709.84;5033745;28;20431;-93
2024/01/23 02:08:54;;;;;;;3.00;1.40;;;;;;;5.24;100.00;152707.28;5033202;28;20435;-93
2024/01/23 02:11:21;;;;;;;3.47;1.40;;;;;;;5.23;100.00;152704.69;5033349;28;20439;-93
2024/01/23 02:13:47;;;;;;;1.83;1.00;;;;;;;5.21;100.00;152699.56;5033285;28;20489;-93
2024/01/23 02:16:14;;;;;;;3.83;1.60;;;;;;;5.18;100.00;152691.81;5033423;28;20435;-93
2024/01/23 02:18:42;;;;;;;2.60;1.30;;;;;;;5.16;100.00;152686.66;5033832;28;20445;-92
2024/01/23 02:21:09;;;;;;;1.83;0.93;;;;;;;5.13;100.00;152678.94;5014301;28;20876;-93
2024/01/23 02:23:35;;;;;;;1.93;1.00;;;;;;;5.12;100.00;152677.63;5038817;28;20906;-92
2024/01/23 02:26:02;;;;;;;6.00;1.83;;;;;;;5.11;100.00;152673.78;5013691;28;20447;-91
2024/01/23 02:28:29;;;;;;;1.60;1.00;;;;;;;5.09;100.00;152668.59;5038982;28;20443;-93
2024/01/23 02:30:56;;;;;;;3.00;0.90;;;;;;;5.10;100.00;152672.47;5034058;28;20471;-92
2024/01/23 02:33:22;;;;;;;2.27;1.20;;;;;;;5.12;100.00;152676.31;5033830;28;20467;-92
2024/01/23 02:35:49;;;;;;;4.30;1.20;;;;;;;5.11;100.00;152673.78;5033668;28;20449;-92
2024/01/23 02:38:15;;;;;;;1.23;0.77;;;;;;;5.08;100.00;152666.03;5033797;28;20431;-92
2024/01/23 02:40:43;;;;;;;2.77;1.27;;;;;;;5.06;100.00;152662.16;5033347;28;20514;-92
2024/01/23 02:43:10;;;;;;;2.57;1.23;;;;;;;5.04;100.00;152655.69;5020756;28;20438;-92
2024/01/23 02:45:37;;;;;;;7.30;2.10;;;;;;;5.01;100.00;152647.97;5016365;28;20447;-92
2024/01/23 02:48:04;;;;;;;1.93;1.00;;;;;;;4.97;100.00;152638.97;5033313;28;20436;-92
2024/01/23 02:50:31;;;;;;;3.17;1.70;;;;;;;4.94;100.00;152631.22;5032887;28;20451;-93
2024/01/23 02:52:58;;;;;;;1.87;1.23;;;;;;;4.89;100.00;152619.66;5033195;28;20481;-93
2024/01/23 02:55:24;;;;;;;3.20;1.30;;;;;;;4.82;100.00;152601.56;5032772;28;20523;-91
2024/01/23 02:57:52;;;;;;;3.67;1.30;;;;;;;4.79;100.00;152592.59;5033174;28;20438;-92
2024/01/23 03:00:19;;;;;;;3.73;1.37;;;;;;;4.76;100.00;152586.16;5033025;28;20541;-93
2024/01/23 03:02:47;;;;;;;2.70;1.37;;;;;;;4.77;100.00;152588.69;5033183;28;20441;-93
2024/01/23 03:05:13;;;;;;;4.60;1.20;;;;;;;4.77;100.00;152588.69;5033379;28;20446;-93
2024/01/23 03:07:40;;;;;;;2.70;1.50;;;;;;;4.75;100.00;152583.56;5033586;28;20439;-93
2024/01/23 03:10:08;;;;;;;2.20;1.40;;;;;;;4.76;100.00;152586.16;5032842;28;20570;-90
2024/01/23 03:12:35;;;;;;;3.03;1.33;;;;;;;4.77;100.00;152587.41;5033110;28;20487;-91
2024/01/23 03:15:04;;;;;;;3.10;1.03;;;;;;;4.78;100.00;152590.00;5033176;28;20521;-92
2024/01/23 03:17:30;;;;;;;3.87;1.30;;;;;;;4.79;100.00;152593.84;5035051;28;20454;-92
2024/01/23 03:19:58;;;;;;;4.07;1.37;;;;;;;4.80;100.00;152596.44;5037044;28;20439;-93
2024/01/23 03:22:25;;;;;;;4.23;1.70;;;;;;;4.82;100.00;152600.28;5036724;28;20605;-93
2024/01/23 03:24:52;;;;;;;6.73;1.83;;;;;;;4.81;100.00;152597.72;5036855;28;20783;-93
2024/01/23 03:27:18;;;;;;;2.57;1.07;;;;;;;4.82;100.00;152601.56;5036705;28;20450;-93
2024/01/23 03:29:46;;;;;;;4.07;1.17;;;;;;;4.83;100.00;152604.16;5052945;28;20435;-93
2024/01/23 03:32:13;;;;;;;3.73;1.40;;;;;;;4.84;100.00;152606.72;5035675;28;20529;-93
2024/01/23 03:34:40;;;;;;;2.97;1.70;;;;;;;4.87;100.00;152614.47;5035618;28;20462;-93
2024/01/23 03:37:07;;;;;;;2.43;1.60;;;;;;;4.90;100.00;152620.91;5035806;28;20821;-93
2024/01/23 03:39:34;;;;;;;2.97;1.83;;;;;;;4.90;100.00;152622.19;5035875;28;20443;-93
2024/01/23 03:42:02;;;;;;;4.70;1.20;;;;;;;4.93;100.00;152628.63;5035813;28;20435;-93
2024/01/23 03:44:29;;;;;;;4.23;1.30;;;;;;;4.93;100.00;152629.94;5036330;28;20433;-91
2024/01/23 03:46:56;;;;;;;3.00;1.50;;;;;;;4.94;100.00;152631.22;5036007;28;20438;-93
2024/01/23 03:49:24;;;;;;;6.53;1.53;;;;;;;4.95;100.00;152633.78;5035688;28;20443;-93
2024/01/23 03:51:51;;;;;;;5.60;1.70;;;;;;;4.96;100.00;152636.38;5035200;28;20463;-93
2024/01/23 03:54:17;;;;;;;6.80;1.30;;;;;;;4.97;100.00;152638.97;5035444;28;20481;-93
2024/01/23 03:56:44;;;;;;;4.07;1.60;;;;;;;4.98;100.00;152640.28;5035267;28;20457;-93
2024/01/23 03:59:11;;;;;;;4.67;1.20;;;;;;;5.00;100.00;152645.41;5035630;28;20439;-93
2024/01/23 04:01:37;;;;;;;2.50;1.10;;;;;;;4.99;100.00;152644.13;5035439;28;20930;-93
2024/01/23 04:04:04;;;;;;;4.33;1.80;;;;;;;5.00;100.00;152646.72;5035571;28;20439;-93
2024/01/23 04:06:32;;;;;;;4.13;1.50;;;;;;;5.01;100.00;152647.97;5035250;28;20455;-93
2024/01/23 04:08:59;;;;;;;3.67;1.40;;;;;;;5.01;100.00;152649.25;5035478;28;20439;-93
2024/01/23 04:11:26;;;;;;;6.57;1.83;;;;;;;5.02;100.00;152650.56;5035334;28;20445;-93
2024/01/23 04:13:53;;;;;;;4.83;1.43;;;;;;;5.02;100.00;152651.84;5035218;28;20482;-92
2024/01/23 04:16:19;;;;;;;3.73;1.73;;;;;;;5.05;100.00;152658.31;5035462;28;20922;-93
2024/01/23 04:18:46;;;;;;;3.63;1.17;;;;;;;5.06;100.00;152660.84;5035243;28;20438;-93
2024/01/23 04:21:16;;;;;;;3.10;1.30;;;;;;;5.06;100.00;152660.84;5035158;28;20435;-93
2024/01/23 04:23:44;;;;;;;3.93;1.30;;;;;;;5.08;100.00;152666.03;5035237;28;20802;-92
2024/01/23 04:26:10;;;;;;;6.27;1.60;;;;;;;5.08;100.00;152666.03;5034957;28;20521;-93
2024/01/23 04:28:37;;;;;;;7.13;1.60;;;;;;;5.09;100.00;152668.59;5034869;28;20431;-92
2024/01/23 04:31:04;;;;;;;6.40;1.73;;;;;;;5.11;100.00;152673.78;5034658;28;20509;-92
2024/01/23 04:33:30;;;;;;;4.50;1.83;;;;;;;5.13;100.00;152678.94;5034370;28;20474;-90
2024/01/23 04:35:57;;;;;;;2.70;1.53;;;;;;;5.13;100.00;152680.22;5034380;28;20443;-91
2024/01/23 04:38:23;;;;;;;5.17;1.57;;;;;;;5.13;100.00;152680.22;5034634;28;20442;-91
2024/01/23 04:40:51;;;;;;;3.87;1.67;;;;;;;5.16;100.00;152686.66;5034230;28;20568;-92
2024/01/23 04:43:18;;;;;;;6.03;2.03;;;;;;;5.16;100.00;152686.66;5034472;28;20486;-92
2024/01/23 04:45:45;;;;;;;7.87;1.90;;;;;;;5.15;100.00;152684.06;5034234;28;20541;-92
2024/01/23 04:48:12;;;;;;;9.33;1.93;;;;;;;5.16;100.00;152686.66;5034256;28;20442;-93
2024/01/23 04:50:38;;;;;;;5.07;1.47;;;;;;;5.18;100.00;152691.81;5033769;28;20458;-92
2024/01/23 04:53:05;;;;;;;3.93;1.40;;;;;;;5.18;100.00;152691.81;5033918;28;20451;-93
2024/01/23 04:55:31;;;;;;;4.23;1.20;;;;;;;5.20;100.00;152698.25;5033931;28;20431;-92
2024/01/23 04:57:59;;;;;;;4.73;1.20;;;;;;;5.21;100.00;152700.84;5034213;28;20573;-92
2024/01/23 05:00:26;;;;;;;4.90;1.40;;;;;;;5.21;100.00;152699.56;5034230;28;20436;-92
2024/01/23 05:02:53;;;;;;;3.93;1.30;;;;;;;5.23;100.00;152706.00;5034589;28;20443;-92
2024/01/23 05:05:19;;;;;;;5.80;1.73;;;;;;;5.22;100.00;152702.09;5034213;28;21472;-92
2024/01/23 05:07:46;;;;;;;3.83;1.13;;;;;;;5.20;100.00;152698.25;5043708;28;20434;-92
2024/01/23 05:10:13;;;;;;;3.37;1.13;;;;;;;5.21;100.00;152699.56;5034496;28;20578;-92
2024/01/23 05:12:39;;;;;;;5.43;1.47;;;;;;;5.22;100.00;152702.09;5039436;28;20462;-92
2024/01/23 05:15:08;;;;;;;4.10;1.33;;;;;;;5.21;100.00;152700.84;5044169;28;20845;-92
2024/01/23 05:17:35;;;;;;;2.83;1.30;;;;;;;5.20;100.00;152696.94;5041182;28;20454;-92
2024/01/23 05:20:04;;;;;;;2.57;1.10;;;;;;;5.19;100.00;152695.66;5034989;28;20441;-93
2024/01/23 05:22:31;;;;;;;4.97;1.23;;;;;;;5.20;100.00;152696.94;5034235;28;20526;-91
2024/01/23 05:24:57;;;;;;;4.07;1.40;;;;;;;5.19;100.00;152694.41;5033662;28;20455;-92
2024/01/23 05:27:24;;;;;;;4.30;1.40;;;;;;;5.20;100.00;152696.94;5033927;28;20452;-92
2024/01/23 05:29:51;;;;;;;4.27;1.40;;;;;;;5.18;100.00;152691.81;5033971;28;20447;-92
2024/01/23 05:32:19;;;;;;;3.23;1.03;;;;;;;5.19;100.00;152694.41;5033283;28;20451;-92
2024/01/23 05:34:54;;;;;;;5.10;1.53;;;;;;;5.18;100.00;152691.81;5033358;28;20558;-92
2024/01/23 05:37:21;;;;;;;5.97;1.47;;;;;;;5.17;100.00;152689.22;5033148;28;20496;-91
2024/01/23 05:39:48;;;;;;;3.90;1.40;;;;;;;5.18;100.00;152691.81;5033261;28;20439;-91
2024/01/23 05:42:15;;;;;;;2.50;1.10;;;;;;;5.17;100.00;152689.22;5033204;28;20447;-93
2024/01/23 05:44:42;;;;;;;2.97;1.20;;;;;;;5.16;100.00;152686.66;5033334;28;20427;-92
2024/01/23 05:47:08;;;;;;;3.40;1.37;;;;;;;5.15;100.00;152685.38;5033094;28;20561;-92
2024/01/23 05:49:36;;;;;;;3.27;1.13;;;;;;;5.14;100.00;152682.78;5033507;28;20937;-92
2024/01/23 05:52:03;;;;;;;4.10;1.03;;;;;;;5.13;100.00;152678.94;5041194;28;20460;-92
2024/01/23 05:54:30;;;;;;;1.70;1.00;;;;;;;5.12;100.00;152677.63;5034061;28;20981;-92
2024/01/23 05:56:57;;;;;;;1.13;0.60;;;;;;;5.11;100.00;152673.78;5032627;28;20443;-92
2024/01/23 05:59:24;;;;;;;1.83;0.90;;;;;;;5.09;100.00;152668.59;5025723;28;21011;-92
2024/01/23 06:01:50;;;;;;;1.73;0.63;;;;;;;5.11;100.00;152673.78;5033077;28;20500;-92
2024/01/23 06:04:17;;;;;;;1.53;0.80;;;;;;;5.06;100.00;152660.84;5032996;28;20493;-92
2024/01/23 06:06:45;;;;;;;1.73;0.60;;;;;;;5.03;100.00;152653.16;5033100;28;20450;-92
2024/01/23 06:09:12;;;;;;;2.33;0.70;;;;;;;5.04;100.00;152655.69;5033120;28;20473;-91
2024/01/23 06:11:39;;;;;;;1.40;0.70;;;;;;;5.05;100.00;152658.31;5033311;28;20446;-92
2024/01/23 06:14:06;;;;;;;2.00;0.70;;;;;;;5.03;100.00;152654.41;5049398;28;20474;-93
2024/01/23 06:16:33;;;;;;;3.43;0.70;;;;;;;5.02;100.00;152650.56;5049107;28;21036;-92
2024/01/23 06:19:00;;;;;;;1.30;0.50;;;;;;;5.01;100.00;152647.97;5049509;28;20431;-92
2024/01/23 06:21:26;;;;;;;1.13;0.53;;;;;;;5.01;100.00;152649.25;5032968;28;20953;-93
2024/01/23 06:23:55;;;;;;;2.43;0.50;;;;;;;4.99;100.00;152642.81;5032984;28;20443;-92
2024/01/23 06:26:21;;;;;;;1.90;0.57;;;;;;;4.97;100.00;152637.69;5032885;28;20469;-93
2024/01/23 06:28:48;;;;;;;1.23;0.50;;;;;;;4.95;100.00;152632.53;5033118;28;20439;-93
2024/01/23 06:31:15;;;;;;;0.93;0.60;;;;;;;4.91;100.00;152623.50;5032793;28;20439;-93
2024/01/23 06:33:41;;;;;;;1.53;0.80;;;;;;;4.90;100.00;152620.91;5032790;28;20585;-93
2024/01/23 06:36:08;;;;;;;2.13;0.80;;;;;;;4.89;100.00;152619.66;5083056;28;20442;-92
2024/01/23 06:38:35;;;;;;;1.23;0.50;;;;;;;4.87;100.00;152614.47;5049939;28;20450;-93
2024/01/23 06:41:03;;;;;;;1.70;0.60;;;;;;;4.85;100.00;152609.31;5055069;28;20545;-92
2024/01/23 06:43:30;;;;;;;2.20;0.73;;;;;;;4.82;100.00;152600.28;5032862;28;20427;-92
2024/01/23 06:45:57;;;;;;;1.10;0.50;;;;;;;4.80;100.00;152596.44;5032869;28;21016;-92
2024/01/23 06:48:24;;;;;;;1.23;0.60;;;;;;;4.80;100.00;152595.13;5032464;28;20442;-92
2024/01/23 06:50:51;;;;;;;1.57;0.60;;;;;;;4.80;100.00;152595.13;5032710;28;20447;-93
2024/01/23 06:53:18;;;;;;;2.43;1.73;;;;;;;4.80;100.00;152596.44;5036081;28;20431;-92
2024/01/23 06:55:45;;;;;;;1.50;0.80;;;;;;;4.78;100.00;152591.28;5036593;28;20513;-93
2024/01/23 06:58:13;;;;;;;1.73;0.57;;;;;;;4.73;100.00;152578.41;5036507;28;20477;-93
2024/01/23 07:00:40;;;;;;;1.10;0.70;;;;;;;4.70;100.00;152570.66;5069792;28;20447;-93
2024/01/23 07:03:08;;;;;;;0.97;0.50;;;;;;;4.70;100.00;152569.38;5069760;28;20435;-93
2024/01/23 07:05:34;;;;;;;1.10;0.53;;;;;;;4.65;100.00;152557.78;5045628;28;20460;-93
2024/01/23 07:08:02;;;;;;;2.13;0.60;;;;;;;4.64;100.00;152555.19;5016567;28;20539;-93
2024/01/23 07:10:29;;;;;;;3.23;0.60;;;;;;;4.60;100.00;152544.91;5026512;28;20466;-92
2024/01/23 07:12:56;;;;;;;0.90;0.40;;;;;;;4.55;100.00;152530.72;5036477;28;20441;-93
2024/01/23 07:15:24;;;;;;;1.00;0.70;;;;;;;4.48;100.00;152512.66;5039231;28;20469;-93
2024/01/23 07:17:51;;;;;;;1.17;0.70;;;;;;;4.44;100.00;152503.69;5048807;28;20442;-92
2024/01/23 07:20:18;;;;;;;1.50;0.60;;;;;;;4.40;100.00;152493.34;5036025;28;20439;-93
2024/01/23 07:22:44;;;;;;;2.50;0.70;;;;;;;4.37;100.00;152484.38;5036224;28;20446;-93
2024/01/23 07:25:20;;;;;;;1.40;0.70;;;;;;;4.34;100.00;152476.63;5036237;28;20446;-93
2024/01/23 07:27:47;;;;;;;1.87;0.57;;;;;;;4.31;100.00;152470.19;5036087;28;20466;-92
2024/01/23 07:30:19;;;;;;;1.47;0.53;;;;;;;4.30;100.00;152467.59;5036530;28;20440;-93
2024/01/23 07:32:50;;;;;;;3.10;1.43;;;;;;;4.24;100.00;152452.13;5035931;28;20467;-92
2024/01/23 07:35:17;;;;;;;1.60;0.70;;;;;;;4.22;100.00;152447.00;5035954;28;20485;-92
2024/01/23 07:37:44;;;;;;;1.63;0.83;;;;;;;4.24;100.00;152453.44;5035878;28;20446;-92
2024/01/23 07:40:11;;;;;;;1.00;0.50;;;;;;;4.33;100.00;152475.34;5035846;28;20451;-93
2024/01/23 07:45:13;;;;;;;1.13;0.60;;;;;;;5.20;100.00;152696.94;5027209;28;20456;-92
2024/01/23 07:47:39;;;;;;;4.50;0.80;;;;;;;5.14;100.00;152681.47;5013621;28;20515;-91
2024/01/23 07:50:08;;;;;;;1.20;0.70;;;;;;;4.90;100.00;152620.91;4995773;28;20448;-91
2024/01/23 07:52:35;;;;;;;3.60;1.10;;;;;;;4.77;100.00;152587.41;5008777;28;20492;-91
2024/01/23 07:55:02;;;;;;;1.53;0.80;;;;;;;5.07;100.00;152663.44;4992822;28;20469;-91
2024/01/23 07:57:29;;;;;;;1.63;1.07;;;;;;;5.17;100.00;152690.50;5010495;28;20430;-92
2024/01/23 08:02:04;;;;;;;1.77;0.63;;;;;;;5.02;100.00;152651.84;5129391;27;20515;-93
2024/01/23 08:04:31;;;;;;;1.60;0.83;;;;;;;4.92;100.00;152626.09;5129344;28;20452;-92
2024/01/23 08:06:57;;;;;;;3.33;1.30;;;;;;;4.84;100.00;152605.47;5128162;28;20447;-92
2024/01/23 08:09:24;;;;;;;1.43;1.00;;;;;;;4.79;100.00;152593.84;5111073;28;20436;-92
2024/01/23 08:11:52;;;;;;;2.53;1.03;;;;;;;4.73;100.00;152578.41;5129649;28;20467;-92
2024/01/23 08:14:19;;;;;;;1.97;0.87;;;;;;;4.70;100.00;152569.38;5127896;28;20508;-92
2024/01/23 08:16:45;;;;;;;1.30;0.90;;;;;;;4.66;100.00;152560.34;5111117;28;20925;-92
2024/01/23 08:19:13;;;;;;;1.07;0.80;;;;;;;4.64;100.00;152555.19;5128038;28;20917;-92
2024/01/23 08:21:40;;;;;;;2.60;1.00;;;;;;;4.62;100.00;152550.06;5110785;28;20476;-93
2024/01/23 08:24:07;;;;;;;3.40;1.20;;;;;;;4.63;100.00;152552.59;5111390;28;20444;-92
2024/01/23 08:26:33;;;;;;;2.03;1.00;;;;;;;4.66;100.00;152559.09;5157860;27;20498;-92
2024/01/23 08:29:00;;;;;;;2.20;0.83;;;;;;;4.72;100.00;152575.81;5090222;28;20437;-93
2024/01/23 08:31:26;;;;;;;2.00;1.00;;;;;;;4.76;100.00;152586.16;5090234;28;20443;-93
2024/01/23 08:33:53;;;;;;;2.40;1.10;;;;;;;4.80;100.00;152596.44;5108129;28;20432;-93
2024/01/23 08:36:21;;;;;;;2.50;1.17;;;;;;;4.82;100.00;152601.56;5110721;28;20909;-92
2024/01/23 08:38:48;;;;;;;2.70;1.10;;;;;;;4.82;100.00;152601.56;5110410;28;20997;-93
2024/01/23 08:41:15;;;;;;;2.87;1.40;;;;;;;4.81;100.00;152599.03;5110490;28;20496;-93
2024/01/23 08:43:41;;;;;;;3.07;1.20;;;;;;;4.82;100.00;152601.56;5110196;28;20436;-92
2024/01/23 08:46:08;;;;;;;3.43;1.60;;;;;;;4.81;100.00;152597.72;5110432;28;20773;-92
2024/01/23 08:48:35;;;;;;;5.43;1.30;;;;;;;4.83;100.00;152604.16;5110048;28;20938;-92
2024/01/23 08:51:02;;;;;;;2.23;1.10;;;;;;;4.87;100.00;152614.47;5110585;28;20858;-92
2024/01/23 08:53:30;;;;;;;1.87;1.33;;;;;;;4.89;100.00;152619.66;5113486;28;20444;-92
2024/01/23 08:55:56;;;;;;;3.00;1.77;;;;;;;4.92;100.00;152627.34;5110312;28;20492;-92
2024/01/23 08:58:24;;;;;;;4.53;1.80;;;;;;;4.95;100.00;152632.53;5110038;28;20455;-92
2024/01/23 09:00:50;;;;;;;2.33;1.37;;;;;;;5.01;100.00;152647.97;5109453;28;20498;-92
2024/01/23 09:03:17;;;;;;;1.77;0.90;;;;;;;5.03;100.00;152654.41;5109775;28;20503;-92
2024/01/23 09:05:44;;;;;;;3.20;1.17;;;;;;;5.07;100.00;152663.44;5109692;28;20447;-92
2024/01/23 09:08:10;;;;;;;5.27;1.37;;;;;;;5.09;100.00;152668.59;5143951;27;20786;-92
2024/01/23 09:10:39;;;;;;;3.77;1.40;;;;;;;5.10;100.00;152672.47;5109749;28;20449;-92
2024/01/23 09:13:05;;;;;;;1.83;0.90;;;;;;;5.13;100.00;152678.94;5097602;28;20485;-92
2024/01/23 09:15:33;;;;;;;2.40;1.40;;;;;;;5.16;100.00;152687.97;5130383;27;20447;-92
2024/01/23 09:18:00;;;;;;;6.57;1.83;;;;;;;5.17;100.00;152689.22;5096371;28;20444;-92
2024/01/23 09:20:26;;;;;;;1.60;1.00;;;;;;;5.18;100.00;152691.81;5090383;28;20496;-93
2024/01/23 09:22:53;;;;;;;2.20;1.20;;;;;;;5.19;100.00;152695.66;5110191;28;20441;-92
2024/01/23 09:25:20;;;;;;;2.50;1.40;;;;;;;5.22;100.00;152702.09;5110641;28;21033;-92
2024/01/23 09:27:48;;;;;;;2.10;1.00;;;;;;;5.25;100.00;152711.13;5137255;27;20444;-92
2024/01/23 09:30:16;;;;;;;3.27;1.53;;;;;;;5.27;100.00;152716.28;5108547;28;20516;-91
2024/01/23 09:32:42;;;;;;;3.70;1.40;;;;;;;5.28;100.00;152718.88;5107215;28;20436;-92
2024/01/23 09:35:12;;;;;;;2.27;1.33;;;;;;;5.29;100.00;152720.19;5095897;28;20493;-93
2024/01/23 09:37:39;;;;;;;1.67;1.10;;;;;;;5.31;100.00;152726.63;5095909;28;20440;-92
2024/01/23 09:40:08;;;;;;;1.47;0.97;;;;;;;5.33;100.00;152730.47;5086781;28;20564;-92
2024/01/23 09:42:36;;;;;;;1.77;0.87;;;;;;;5.34;100.00;152734.38;5075177;28;20468;-93
2024/01/23 09:45:09;;;;;;;3.83;1.60;;;;;;;5.35;100.00;152735.63;5091729;28;20555;-93
2024/01/23 09:47:36;;;;;;;3.23;1.20;;;;;;;5.38;100.00;152743.34;5110824;27;20428;-93
2024/01/23 09:50:03;;;;;;;2.37;0.97;;;;;;;5.40;100.00;152749.81;5112260;28;20891;-93
2024/01/23 09:52:31;;;;;;;1.90;1.00;;;;;;;5.44;100.00;152758.84;5112265;28;20483;-92
2024/01/23 09:54:57;;;;;;;2.90;1.00;;;;;;;5.47;100.00;152767.88;5112913;27;20443;-93
2024/01/23 09:57:24;;;;;;;1.30;0.83;;;;;;;5.51;100.00;152776.88;5092552;28;20453;-93
2024/01/23 09:59:52;;;;;;;1.30;0.70;;;;;;;5.55;100.00;152787.22;5074648;28;20426;-93
2024/01/23 10:02:21;;;;;;;2.30;1.03;;;;;;;5.56;100.00;152789.75;5108654;28;20472;-93
2024/01/23 10:04:49;;;;;;;1.87;1.10;;;;;;;5.57;100.00;152791.06;5123203;27;20446;-93
2024/01/23 10:07:15;;;;;;;5.53;1.20;;;;;;;5.60;100.00;152800.09;5095406;28;20444;-93
2024/01/23 10:09:49;;;;;;;1.30;1.00;;;;;;;5.65;100.00;152813.00;5096824;28;20453;-93
2024/01/23 10:12:16;;;;;;;3.90;1.73;;;;;;;5.65;100.00;152813.00;5099927;28;20424;-93
2024/01/23 10:14:43;;;;;;;4.07;1.10;;;;;;;5.68;100.00;152819.44;5096201;28;20421;-93
2024/01/23 10:17:10;;;;;;;2.57;1.63;;;;;;;5.70;100.00;152824.59;5102583;28;20527;-93
2024/01/23 10:19:39;;;;;;;1.90;1.10;;;;;;;5.72;100.00;152829.78;5095123;28;20432;-91
2024/01/23 10:22:05;;;;;;;2.07;1.10;;;;;;;5.73;100.00;152832.34;5095042;28;20531;-92
2024/01/23 10:24:33;;;;;;;1.90;1.10;;;;;;;5.77;100.00;152843.94;5093733;28;20425;-93
2024/01/23 10:26:59;;;;;;;2.23;1.20;;;;;;;5.82;100.00;152856.88;5094865;28;20436;-92
2024/01/23 10:29:26;;;;;;;2.60;1.03;;;;;;;5.88;100.00;152872.34;5095316;28;20448;-93
2024/01/23 10:31:53;;;;;;;2.87;1.50;;;;;;;5.95;100.00;152889.16;5091611;28;20453;-92
2024/01/23 10:34:20;;;;;;;3.37;1.47;;;;;;;6.01;100.00;152904.66;5074832;28;20495;-93
2024/01/23 10:36:51;;;;;;;4.13;1.77;;;;;;;6.04;100.00;152913.63;5075133;28;20453;-93
2024/01/23 10:39:20;;;;;;;6.23;1.50;;;;;;;6.10;100.00;152927.84;5119050;27;20460;-93
2024/01/23 10:41:49;;;;;;;4.70;1.30;;;;;;;6.12;100.00;152934.28;5094846;28;20472;-93
2024/01/23 10:44:17;;;;;;;7.80;1.70;;;;;;;6.19;100.00;152949.78;5094399;28;20441;-93
2024/01/23 10:46:44;;;;;;;2.70;1.40;;;;;;;6.33;100.00;152985.91;5094431;28;20448;-94
2024/01/23 10:49:11;;;;;;;5.67;1.33;;;;;;;6.44;100.00;153014.28;5094412;28;20854;-94
2024/01/23 10:51:38;;;;;;;5.30;2.10;;;;;;;6.62;100.00;153062.03;5094349;28;20501;-94
2024/01/23 10:54:09;;;;;;;2.13;1.20;;;;;;;6.61;100.00;153058.16;5094375;28;20428;-94
2024/01/23 10:56:42;;;;;;;2.20;1.10;;;;;;;6.70;100.00;153081.38;5094217;28;20882;-95
2024/01/23 10:59:16;;;;;;;6.50;1.93;;;;;;;6.73;100.00;153090.41;5123971;27;20552;-94
2024/01/23 11:01:44;;;;;;;3.07;1.50;;;;;;;6.81;100.00;153108.47;5093671;28;20545;-93
2024/01/23 11:04:11;;;;;;;2.47;1.23;;;;;;;6.85;100.00;153118.81;5094112;28;20486;-93
2024/01/23 11:06:45;;;;;;;7.97;1.40;;;;;;;6.92;100.00;153138.19;5099395;28;20789;-93
2024/01/23 11:09:17;;;;;;;3.13;1.20;;;;;;;6.99;100.00;153156.25;5094035;28;20471;-94
2024/01/23 11:11:49;;;;;;;5.00;1.30;;;;;;;7.04;100.00;153167.91;5093968;28;20983;-93
2024/01/23 11:14:19;;;;;;;8.30;1.73;;;;;;;7.04;100.00;153169.16;5093847;28;20441;-92
2024/01/23 11:17:01;;;;;;;2.87;1.17;;;;;;;6.98;100.00;153153.69;5094119;28;20456;-93
2024/01/23 11:19:28;;;;;;;3.30;1.10;;;;;;;6.99;100.00;153156.25;5093498;28;20474;-93
2024/01/23 11:22:01;;;;;;;4.07;1.40;;;;;;;7.00;100.00;153157.53;5093941;28;20476;-93
2024/01/23 11:24:41;;;;;;;3.20;1.60;;;;;;;7.02;100.00;153162.69;5101200;27;20462;-93
2024/01/23 11:27:08;;;;;;;6.67;1.03;;;;;;;7.06;100.00;153174.34;5093038;28;20478;-93
2024/01/23 11:29:34;;;;;;;2.03;1.33;;;;;;;7.11;100.00;153185.94;5107278;28;20514;-89